sensor_id;sensor_type;location;lat;lon;timestamp;pressure;altitude;pressure_sealevel;temperature;humidity
77799;BME280;66989;50.426;15.352;2024-02-21T00:01:02;98815.97;;;5.43;95.68
77799;BME280;66989;50.426;15.352;2024-02-21T00:03:28;98814.19;;;5.43;94.96
77799;BME280;66989;50.426;15.352;2024-02-21T00:05:53;98811.41;;;5.46;95.22
77799;BME280;66989;50.426;15.352;2024-02-21T00:08:19;98816.59;;;5.48;95.05
77799;BME280;66989;50.426;15.352;2024-02-21T00:10:44;98814.75;;;5.50;94.83
77799;BME280;66989;50.426;15.352;2024-02-21T00:13:09;98815.59;;;5.50;94.71
77799;BME280;66989;50.426;15.352;2024-02-21T00:15:35;98809.41;;;5.53;94.54
77799;BME280;66989;50.426;15.352;2024-02-21T00:18:00;98805.00;;;5.53;94.30
77799;BME280;66989;50.426;15.352;2024-02-21T00:20:25;98806.78;;;5.53;94.03
77799;BME280;66989;50.426;15.352;2024-02-21T00:22:51;98807.53;;;5.55;93.89
77799;BME280;66989;50.426;15.352;2024-02-21T00:25:17;98803.25;;;5.54;93.85
77799;BME280;66989;50.426;15.352;2024-02-21T00:27:42;98799.69;;;5.55;94.18
77799;BME280;66989;50.426;15.352;2024-02-21T00:30:08;98807.53;;;5.55;94.09
77799;BME280;66989;50.426;15.352;2024-02-21T00:32:34;98801.47;;;5.54;93.92
77799;BME280;66989;50.426;15.352;2024-02-21T00:34:59;98801.47;;;5.54;93.91
77799;BME280;66989;50.426;15.352;2024-02-21T00:37:25;98791.84;;;5.55;94.15
77799;BME280;66989;50.426;15.352;2024-02-21T00:39:50;98785.78;;;5.54;94.02
77799;BME280;66989;50.426;15.352;2024-02-21T00:42:16;98787.53;;;5.54;93.86
77799;BME280;66989;50.426;15.352;2024-02-21T00:44:41;98776.16;;;5.55;93.99
77799;BME280;66989;50.426;15.352;2024-02-21T00:47:06;98781.38;;;5.55;93.57
77799;BME280;66989;50.426;15.352;2024-02-21T00:49:32;98784.00;;;5.55;93.58
77799;BME280;66989;50.426;15.352;2024-02-21T00:51:57;98784.00;;;5.55;93.61
77799;BME280;66989;50.426;15.352;2024-02-21T00:54:23;98782.31;;;5.54;93.80
77799;BME280;66989;50.426;15.352;2024-02-21T00:56:48;98774.47;;;5.54;93.87
77799;BME280;66989;50.426;15.352;2024-02-21T00:59:13;98771.84;;;5.54;93.83
77799;BME280;66989;50.426;15.352;2024-02-21T01:01:39;98775.31;;;5.54;93.83
77799;BME280;66989;50.426;15.352;2024-02-21T01:04:07;98771.84;;;5.54;93.86
77799;BME280;66989;50.426;15.352;2024-02-21T01:06:32;98772.78;;;5.53;94.08
77799;BME280;66989;50.426;15.352;2024-02-21T01:08:57;98778.00;;;5.53;94.05
77799;BME280;66989;50.426;15.352;2024-02-21T01:11:23;98769.31;;;5.52;93.59
77799;BME280;66989;50.426;15.352;2024-02-21T01:13:48;98765.78;;;5.53;93.64
77799;BME280;66989;50.426;15.352;2024-02-21T01:16:13;98761.41;;;5.54;93.69
77799;BME280;66989;50.426;15.352;2024-02-21T01:18:39;98764.09;;;5.52;93.29
77799;BME280;66989;50.426;15.352;2024-02-21T01:21:05;98754.47;;;5.53;93.61
77799;BME280;66989;50.426;15.352;2024-02-21T01:23:33;98753.63;;;5.52;93.60
77799;BME280;66989;50.426;15.352;2024-02-21T01:25:58;98739.72;;;5.52;93.34
77799;BME280;66989;50.426;15.352;2024-02-21T01:28:24;98748.44;;;5.51;93.34
77799;BME280;66989;50.426;15.352;2024-02-21T01:30:49;98735.38;;;5.51;93.18
77799;BME280;66989;50.426;15.352;2024-02-21T01:33:14;98728.44;;;5.50;93.20
77799;BME280;66989;50.426;15.352;2024-02-21T01:35:40;98725.84;;;5.50;93.20
77799;BME280;66989;50.426;15.352;2024-02-21T01:38:05;98723.22;;;5.50;92.80
77799;BME280;66989;50.426;15.352;2024-02-21T01:40:30;98722.28;;;5.51;92.73
77799;BME280;66989;50.426;15.352;2024-02-21T01:42:56;98727.53;;;5.51;92.83
77799;BME280;66989;50.426;15.352;2024-02-21T01:45:21;98722.28;;;5.51;92.90
77799;BME280;66989;50.426;15.352;2024-02-21T01:47:48;98715.53;;;5.47;92.63
77799;BME280;66989;50.426;15.352;2024-02-21T01:50:14;98709.69;;;5.42;92.72
77799;BME280;66989;50.426;15.352;2024-02-21T01:52:41;98714.19;;;5.38;93.30
77799;BME280;66989;50.426;15.352;2024-02-21T01:55:07;98708.25;;;5.34;93.20
77799;BME280;66989;50.426;15.352;2024-02-21T01:57:35;98710.09;;;5.32;93.29
77799;BME280;66989;50.426;15.352;2024-02-21T02:00:00;98708.41;;;5.31;93.14
77799;BME280;66989;50.426;15.352;2024-02-21T02:02:26;98712.00;;;5.29;93.39
77799;BME280;66989;50.426;15.352;2024-02-21T02:04:56;98705.31;;;5.23;94.08
77799;BME280;66989;50.426;15.352;2024-02-21T02:07:22;98706.38;;;5.19;94.29
77799;BME280;66989;50.426;15.352;2024-02-21T02:09:47;98703.91;;;5.16;94.26
77799;BME280;66989;50.426;15.352;2024-02-21T02:12:13;98688.28;;;5.14;94.56
77799;BME280;66989;50.426;15.352;2024-02-21T02:14:38;98690.13;;;5.12;94.65
77799;BME280;66989;50.426;15.352;2024-02-21T02:17:04;98689.41;;;5.09;94.93
77799;BME280;66989;50.426;15.352;2024-02-21T02:19:29;98690.53;;;5.03;94.65
77799;BME280;66989;50.426;15.352;2024-02-21T02:22:00;98682.16;;;4.97;95.13
77799;BME280;66989;50.426;15.352;2024-02-21T02:24:30;98688.59;;;4.90;95.72
77799;BME280;66989;50.426;15.352;2024-02-21T02:26:56;98688.00;;;4.83;96.20
77799;BME280;66989;50.426;15.352;2024-02-21T02:29:21;98683.81;;;4.79;96.44
77799;BME280;66989;50.426;15.352;2024-02-21T02:31:47;98683.06;;;4.77;96.73
77799;BME280;66989;50.426;15.352;2024-02-21T02:34:12;98679.59;;;4.76;96.92
77799;BME280;66989;50.426;15.352;2024-02-21T02:36:37;98686.50;;;4.77;97.05
77799;BME280;66989;50.426;15.352;2024-02-21T02:39:03;98683.78;;;4.80;96.84
77799;BME280;66989;50.426;15.352;2024-02-21T02:41:28;98675.03;;;4.81;96.66
77799;BME280;66989;50.426;15.352;2024-02-21T02:43:53;98675.09;;;4.80;96.13
77799;BME280;66989;50.426;15.352;2024-02-21T02:46:19;98669.91;;;4.78;96.94
77799;BME280;66989;50.426;15.352;2024-02-21T02:48:44;98673.63;;;4.74;97.25
77799;BME280;66989;50.426;15.352;2024-02-21T02:51:10;98673.75;;;4.71;97.49
77799;BME280;66989;50.426;15.352;2024-02-21T02:53:35;98673.03;;;4.68;97.81
77799;BME280;66989;50.426;15.352;2024-02-21T02:56:01;98674.72;;;4.69;97.69
77799;BME280;66989;50.426;15.352;2024-02-21T02:58:26;98659.03;;;4.69;97.45
77799;BME280;66989;50.426;15.352;2024-02-21T03:00:51;98655.53;;;4.70;97.75
77799;BME280;66989;50.426;15.352;2024-02-21T03:03:17;98650.22;;;4.71;97.58
77799;BME280;66989;50.426;15.352;2024-02-21T03:05:42;98652.72;;;4.74;97.68
77799;BME280;66989;50.426;15.352;2024-02-21T03:08:07;98648.25;;;4.76;97.32
77799;BME280;66989;50.426;15.352;2024-02-21T03:10:33;98645.53;;;4.79;97.11
77799;BME280;66989;50.426;15.352;2024-02-21T03:12:59;98647.97;;;4.82;96.99
77799;BME280;66989;50.426;15.352;2024-02-21T03:15:24;98643.53;;;4.84;96.36
77799;BME280;66989;50.426;15.352;2024-02-21T03:17:50;98642.53;;;4.87;96.35
77799;BME280;66989;50.426;15.352;2024-02-21T03:20:15;98645.88;;;4.91;96.11
77799;BME280;66989;50.426;15.352;2024-02-21T03:22:41;98646.63;;;4.93;96.11
77799;BME280;66989;50.426;15.352;2024-02-21T03:25:07;98646.50;;;4.96;96.00
77799;BME280;66989;50.426;15.352;2024-02-21T03:27:33;98634.19;;;4.98;95.40
77799;BME280;66989;50.426;15.352;2024-02-21T03:29:58;98640.97;;;5.02;95.25
77799;BME280;66989;50.426;15.352;2024-02-21T03:32:23;98640.91;;;5.03;94.88
77799;BME280;66989;50.426;15.352;2024-02-21T03:34:49;98640.81;;;5.05;94.88
77799;BME280;66989;50.426;15.352;2024-02-21T03:37:15;98645.91;;;5.08;94.47
77799;BME280;66989;50.426;15.352;2024-02-21T03:39:40;98648.44;;;5.09;94.13
77799;BME280;66989;50.426;15.352;2024-02-21T03:42:06;98649.25;;;5.11;93.51
77799;BME280;66989;50.426;15.352;2024-02-21T03:44:32;98644.78;;;5.13;93.62
77799;BME280;66989;50.426;15.352;2024-02-21T03:47:00;98650.72;;;5.17;93.26
77799;BME280;66989;50.426;15.352;2024-02-21T03:49:26;98642.78;;;5.19;93.12
77799;BME280;66989;50.426;15.352;2024-02-21T03:51:51;98641.00;;;5.19;92.62
77799;BME280;66989;50.426;15.352;2024-02-21T03:54:17;98640.09;;;5.20;92.51
77799;BME280;66989;50.426;15.352;2024-02-21T03:56:43;98643.50;;;5.22;92.67
77799;BME280;66989;50.426;15.352;2024-02-21T03:59:08;98643.50;;;5.22;92.39
77799;BME280;66989;50.426;15.352;2024-02-21T04:01:34;98634.84;;;5.20;92.15
77799;BME280;66989;50.426;15.352;2024-02-21T04:04:00;98632.50;;;5.16;92.43
77799;BME280;66989;50.426;15.352;2024-02-21T04:06:25;98636.16;;;5.11;92.30
77799;BME280;66989;50.426;15.352;2024-02-21T04:08:50;98623.31;;;5.07;92.77
77799;BME280;66989;50.426;15.352;2024-02-21T04:11:16;98623.53;;;5.02;93.15
77799;BME280;66989;50.426;15.352;2024-02-21T04:13:42;98617.66;;;4.97;93.93
77799;BME280;66989;50.426;15.352;2024-02-21T04:16:07;98629.25;;;4.92;94.31
77799;BME280;66989;50.426;15.352;2024-02-21T04:18:33;98625.81;;;4.91;94.42
77799;BME280;66989;50.426;15.352;2024-02-21T04:20:58;98621.56;;;4.88;94.45
77799;BME280;66989;50.426;15.352;2024-02-21T04:23:24;98616.41;;;4.87;94.99
77799;BME280;66989;50.426;15.352;2024-02-21T04:25:49;98618.38;;;4.82;95.03
77799;BME280;66989;50.426;15.352;2024-02-21T04:28:14;98612.44;;;4.78;95.07
77799;BME280;66989;50.426;15.352;2024-02-21T04:30:40;98610.75;;;4.77;95.17
77799;BME280;66989;50.426;15.352;2024-02-21T04:33:05;98614.38;;;4.75;95.23
77799;BME280;66989;50.426;15.352;2024-02-21T04:35:30;98614.59;;;4.70;94.90
77799;BME280;66989;50.426;15.352;2024-02-21T04:37:56;98612.03;;;4.69;95.54
77799;BME280;66989;50.426;15.352;2024-02-21T04:40:21;98606.81;;;4.69;95.60
77799;BME280;66989;50.426;15.352;2024-02-21T04:42:46;98605.97;;;4.68;95.29
77799;BME280;66989;50.426;15.352;2024-02-21T04:45:12;98600.75;;;4.68;95.73
77799;BME280;66989;50.426;15.352;2024-02-21T04:47:37;98601.59;;;4.69;95.57
77799;BME280;66989;50.426;15.352;2024-02-21T04:50:03;98602.38;;;4.71;95.48
77799;BME280;66989;50.426;15.352;2024-02-21T04:52:28;98599.69;;;4.72;95.47
77799;BME280;66989;50.426;15.352;2024-02-21T04:54:54;98590.03;;;4.74;96.02
77799;BME280;66989;50.426;15.352;2024-02-21T04:57:20;98592.56;;;4.76;95.55
77799;BME280;66989;50.426;15.352;2024-02-21T04:59:46;98594.38;;;4.74;95.58
77799;BME280;66989;50.426;15.352;2024-02-21T05:02:14;98582.25;;;4.73;95.74
77799;BME280;66989;50.426;15.352;2024-02-21T05:04:39;98591.75;;;4.74;96.14
77799;BME280;66989;50.426;15.352;2024-02-21T05:07:06;98579.59;;;4.74;96.19
77799;BME280;66989;50.426;15.352;2024-02-21T05:09:32;98580.44;;;4.75;95.60
77799;BME280;66989;50.426;15.352;2024-02-21T05:11:57;98579.59;;;4.74;95.26
77799;BME280;66989;50.426;15.352;2024-02-21T05:14:24;98576.09;;;4.74;95.77
77799;BME280;66989;50.426;15.352;2024-02-21T05:16:50;98580.44;;;4.75;95.59
77799;BME280;66989;50.426;15.352;2024-02-21T05:19:15;98577.81;;;4.75;96.01
77799;BME280;66989;50.426;15.352;2024-02-21T05:21:40;98578.66;;;4.75;95.98
77799;BME280;66989;50.426;15.352;2024-02-21T05:24:06;98577.88;;;4.73;95.74
77799;BME280;66989;50.426;15.352;2024-02-21T05:26:31;98585.69;;;4.73;96.45
77799;BME280;66989;50.426;15.352;2024-02-21T05:28:57;98587.47;;;4.73;96.80
77799;BME280;66989;50.426;15.352;2024-02-21T05:31:23;98577.94;;;4.72;96.49
77799;BME280;66989;50.426;15.352;2024-02-21T05:33:49;98581.56;;;4.69;96.37
77799;BME280;66989;50.426;15.352;2024-02-21T05:36:14;98583.31;;;4.69;96.24
77799;BME280;66989;50.426;15.352;2024-02-21T05:38:39;98579.94;;;4.67;96.32
77799;BME280;66989;50.426;15.352;2024-02-21T05:41:05;98577.31;;;4.67;96.15
77799;BME280;66989;50.426;15.352;2024-02-21T05:43:31;98580.97;;;4.63;96.35
77799;BME280;66989;50.426;15.352;2024-02-21T05:45:56;98574.28;;;4.57;96.68
77799;BME280;66989;50.426;15.352;2024-02-21T05:48:23;98577.94;;;4.53;96.40
77799;BME280;66989;50.426;15.352;2024-02-21T05:50:48;98586.22;;;4.44;96.72
77799;BME280;66989;50.426;15.352;2024-02-21T05:53:14;98586.56;;;4.36;97.17
77799;BME280;66989;50.426;15.352;2024-02-21T05:55:40;98585.19;;;4.27;98.23
77799;BME280;66989;50.426;15.352;2024-02-21T05:58:05;98583.66;;;4.23;98.12
77799;BME280;66989;50.426;15.352;2024-02-21T06:00:31;98580.41;;;4.18;98.46
77799;BME280;66989;50.426;15.352;2024-02-21T06:02:57;98575.31;;;4.15;98.72
77799;BME280;66989;50.426;15.352;2024-02-21T06:05:22;98579.69;;;4.15;98.80
77799;BME280;66989;50.426;15.352;2024-02-21T06:07:47;98577.94;;;4.15;99.12
77799;BME280;66989;50.426;15.352;2024-02-21T06:10:13;98570.91;;;4.17;99.42
77799;BME280;66989;50.426;15.352;2024-02-21T06:12:39;98577.59;;;4.23;99.16
77799;BME280;66989;50.426;15.352;2024-02-21T06:15:05;98571.38;;;4.25;99.15
77799;BME280;66989;50.426;15.352;2024-02-21T06:17:31;98568.66;;;4.28;98.74
77799;BME280;66989;50.426;15.352;2024-02-21T06:19:56;98573.66;;;4.33;98.62
77799;BME280;66989;50.426;15.352;2024-02-21T06:22:22;98574.34;;;4.37;98.28
77799;BME280;66989;50.426;15.352;2024-02-21T06:24:47;98578.44;;;4.42;97.76
77799;BME280;66989;50.426;15.352;2024-02-21T06:27:15;98568.59;;;4.49;97.43
77799;BME280;66989;50.426;15.352;2024-02-21T06:29:41;98568.13;;;4.58;98.21
77799;BME280;66989;50.426;15.352;2024-02-21T06:32:07;98572.63;;;4.73;98.32
77799;BME280;66989;50.426;15.352;2024-02-21T06:34:38;98571.66;;;4.95;99.79
77799;BME280;66989;50.426;15.352;2024-02-21T06:37:03;98568.34;;;5.08;99.38
77799;BME280;66989;50.426;15.352;2024-02-21T06:39:30;98568.00;;;5.16;98.01
77799;BME280;66989;50.426;15.352;2024-02-21T06:41:56;98564.16;;;5.23;97.55
77799;BME280;66989;50.426;15.352;2024-02-21T06:44:21;98569.06;;;5.29;96.42
77799;BME280;66989;50.426;15.352;2024-02-21T06:46:46;98566.53;;;5.28;95.35
77799;BME280;66989;50.426;15.352;2024-02-21T06:49:12;98564.84;;;5.27;94.24
77799;BME280;66989;50.426;15.352;2024-02-21T06:51:42;98579.59;;;5.28;94.06
77799;BME280;66989;50.426;15.352;2024-02-21T06:54:08;98578.75;;;5.27;94.19
77799;BME280;66989;50.426;15.352;2024-02-21T06:56:33;98574.28;;;5.29;94.34
77799;BME280;66989;50.426;15.352;2024-02-21T06:58:58;98578.47;;;5.33;94.67
77799;BME280;66989;50.426;15.352;2024-02-21T07:01:24;98576.56;;;5.37;94.50
77799;BME280;66989;50.426;15.352;2024-02-21T07:03:50;98577.31;;;5.39;94.19
77799;BME280;66989;50.426;15.352;2024-02-21T07:06:15;98586.91;;;5.38;93.72
77799;BME280;66989;50.426;15.352;2024-02-21T07:08:41;98573.75;;;5.40;94.49
77799;BME280;66989;50.426;15.352;2024-02-21T07:11:06;98581.78;;;5.37;93.93
77799;BME280;66989;50.426;15.352;2024-02-21T07:13:32;98576.59;;;5.35;94.61
77799;BME280;66989;50.426;15.352;2024-02-21T07:15:58;98578.47;;;5.33;95.04
77799;BME280;66989;50.426;15.352;2024-02-21T07:18:23;98577.69;;;5.31;95.33
77799;BME280;66989;50.426;15.352;2024-02-21T07:20:51;98574.00;;;5.35;95.59
77799;BME280;66989;50.426;15.352;2024-02-21T07:23:16;98581.69;;;5.38;95.42
77799;BME280;66989;50.426;15.352;2024-02-21T07:25:42;98577.84;;;5.46;95.51
77799;BME280;66989;50.426;15.352;2024-02-21T07:28:07;98574.00;;;5.53;95.19
77799;BME280;66989;50.426;15.352;2024-02-21T07:30:32;98576.63;;;5.53;93.89
77799;BME280;66989;50.426;15.352;2024-02-21T07:32:58;98570.69;;;5.49;94.16
77799;BME280;66989;50.426;15.352;2024-02-21T07:35:23;98565.38;;;5.51;94.54
77799;BME280;66989;50.426;15.352;2024-02-21T07:37:48;98563.69;;;5.50;94.88
77799;BME280;66989;50.426;15.352;2024-02-21T07:40:15;98556.91;;;5.46;95.21
77799;BME280;66989;50.426;15.352;2024-02-21T07:42:40;98560.38;;;5.46;95.35
77799;BME280;66989;50.426;15.352;2024-02-21T07:45:09;98560.16;;;5.51;94.56
77799;BME280;66989;50.426;15.352;2024-02-21T07:47:36;98565.88;;;5.42;94.52
77799;BME280;66989;50.426;15.352;2024-02-21T07:50:03;98557.22;;;5.39;94.79
77799;BME280;66989;50.426;15.352;2024-02-21T07:52:29;98557.41;;;5.36;95.77
77799;BME280;66989;50.426;15.352;2024-02-21T07:54:54;98554.31;;;5.28;95.46
77799;BME280;66989;50.426;15.352;2024-02-21T07:57:19;98562.16;;;5.28;96.42
77799;BME280;66989;50.426;15.352;2024-02-21T07:59:45;98550.94;;;5.26;96.51
77799;BME280;66989;50.426;15.352;2024-02-21T08:02:13;98549.69;;;5.33;95.94
77799;BME280;66989;50.426;15.352;2024-02-21T08:04:38;98551.06;;;5.40;95.74
77799;BME280;66989;50.426;15.352;2024-02-21T08:07:03;98548.53;;;5.39;95.40
77799;BME280;66989;50.426;15.352;2024-02-21T08:09:29;98545.16;;;5.37;95.56
77799;BME280;66989;50.426;15.352;2024-02-21T08:11:55;98546.63;;;5.43;96.17
77799;BME280;66989;50.426;15.352;2024-02-21T08:14:21;98539.72;;;5.42;95.29
77799;BME280;66989;50.426;15.352;2024-02-21T08:16:47;98538.78;;;5.43;96.09
77799;BME280;66989;50.426;15.352;2024-02-21T08:19:12;98542.06;;;5.46;96.02
77799;BME280;66989;50.426;15.352;2024-02-21T08:21:38;98534.09;;;5.49;95.80
77799;BME280;66989;50.426;15.352;2024-02-21T08:24:04;98539.31;;;5.49;96.17
77799;BME280;66989;50.426;15.352;2024-02-21T08:26:29;98543.38;;;5.55;96.16
77799;BME280;66989;50.426;15.352;2024-02-21T08:28:58;98549.16;;;5.61;96.18
77799;BME280;66989;50.426;15.352;2024-02-21T08:31:25;98545.22;;;5.70;96.14
77799;BME280;66989;50.426;15.352;2024-02-21T08:33:57;98543.81;;;5.80;95.29
77799;BME280;66989;50.426;15.352;2024-02-21T08:36:30;98538.88;;;5.91;94.08
77799;BME280;66989;50.426;15.352;2024-02-21T08:38:56;98538.91;;;6.07;93.65
77799;BME280;66989;50.426;15.352;2024-02-21T08:41:23;98532.84;;;6.23;92.92
77799;BME280;66989;50.426;15.352;2024-02-21T08:43:52;98525.94;;;6.37;92.29
77799;BME280;66989;50.426;15.352;2024-02-21T08:46:22;98529.00;;;6.61;92.37
77799;BME280;66989;50.426;15.352;2024-02-21T08:48:49;98528.31;;;6.89;91.82
77799;BME280;66989;50.426;15.352;2024-02-21T08:51:14;98525.03;;;7.16;90.56
77799;BME280;66989;50.426;15.352;2024-02-21T08:53:40;98527.19;;;7.39;88.87
77799;BME280;66989;50.426;15.352;2024-02-21T08:56:05;98533.53;;;7.65;88.02
77799;BME280;66989;50.426;15.352;2024-02-21T08:58:32;98525.81;;;7.92;86.87
77799;BME280;66989;50.426;15.352;2024-02-21T09:00:58;98516.88;;;8.23;84.03
77799;BME280;66989;50.426;15.352;2024-02-21T09:03:26;98515.72;;;8.56;82.06
77799;BME280;66989;50.426;15.352;2024-02-21T09:05:51;98513.16;;;8.69;81.18
77799;BME280;66989;50.426;15.352;2024-02-21T09:08:16;98513.50;;;8.77;79.88
77799;BME280;66989;50.426;15.352;2024-02-21T09:10:42;98510.81;;;8.91;79.00
77799;BME280;66989;50.426;15.352;2024-02-21T09:13:07;98507.06;;;8.95;79.36
77799;BME280;66989;50.426;15.352;2024-02-21T09:15:34;98506.16;;;9.09;79.47
77799;BME280;66989;50.426;15.352;2024-02-21T09:17:59;98508.56;;;8.99;78.79
77799;BME280;66989;50.426;15.352;2024-02-21T09:20:25;98514.13;;;9.08;79.36
77799;BME280;66989;50.426;15.352;2024-02-21T09:22:50;98520.88;;;9.12;79.54
77799;BME280;66989;50.426;15.352;2024-02-21T09:25:17;98517.31;;;9.13;79.09
77799;BME280;66989;50.426;15.352;2024-02-21T09:27:44;98520.88;;;9.12;78.73
77799;BME280;66989;50.426;15.352;2024-02-21T09:30:09;98525.81;;;9.03;78.15
77799;BME280;66989;50.426;15.352;2024-02-21T09:32:35;98521.81;;;8.98;78.88
77799;BME280;66989;50.426;15.352;2024-02-21T09:35:01;98525.06;;;9.01;79.05
77799;BME280;66989;50.426;15.352;2024-02-21T09:37:26;98525.72;;;9.05;79.12
77799;BME280;66989;50.426;15.352;2024-02-21T09:39:52;98518.97;;;9.01;78.84
77799;BME280;66989;50.426;15.352;2024-02-21T09:42:21;98516.69;;;9.09;79.47
77799;BME280;66989;50.426;15.352;2024-02-21T09:44:50;98499.06;;;9.24;79.11
77799;BME280;66989;50.426;15.352;2024-02-21T09:47:22;98496.63;;;9.34;79.37
77799;BME280;66989;50.426;15.352;2024-02-21T09:49:49;98494.22;;;9.43;78.90
77799;BME280;66989;50.426;15.352;2024-02-21T09:52:16;98483.81;;;9.54;78.52
77799;BME280;66989;50.426;15.352;2024-02-21T09:54:42;98486.09;;;9.34;76.90
77799;BME280;66989;50.426;15.352;2024-02-21T09:57:10;98481.59;;;8.96;77.04
77799;BME280;66989;50.426;15.352;2024-02-21T09:59:37;98478.25;;;9.07;77.60
77799;BME280;66989;50.426;15.352;2024-02-21T10:02:03;98477.13;;;9.11;77.93
77799;BME280;66989;50.426;15.352;2024-02-21T10:04:29;98476.47;;;9.07;78.37
77799;BME280;66989;50.426;15.352;2024-02-21T10:06:55;98473.00;;;9.07;78.29
77799;BME280;66989;50.426;15.352;2024-02-21T10:09:24;98477.66;;;9.03;78.07
77799;BME280;66989;50.426;15.352;2024-02-21T10:11:52;98482.94;;;9.16;78.19
77799;BME280;66989;50.426;15.352;2024-02-21T10:14:18;98478.69;;;9.13;77.48
77799;BME280;66989;50.426;15.352;2024-02-21T10:16:46;98480.22;;;8.63;78.94
77799;BME280;66989;50.426;15.352;2024-02-21T10:19:19;98489.28;;;8.72;78.92
77799;BME280;66989;50.426;15.352;2024-02-21T10:22:05;98482.28;;;8.72;78.69
77799;BME280;66989;50.426;15.352;2024-02-21T10:24:33;98479.81;;;8.69;79.54
77799;BME280;66989;50.426;15.352;2024-02-21T10:27:03;98472.13;;;8.66;80.13
77799;BME280;66989;50.426;15.352;2024-02-21T10:29:31;98471.97;;;8.55;79.23
77799;BME280;66989;50.426;15.352;2024-02-21T10:32:10;98465.16;;;8.52;79.82
77799;BME280;66989;50.426;15.352;2024-02-21T10:34:37;98457.41;;;8.64;80.39
77799;BME280;66989;50.426;15.352;2024-02-21T10:37:03;98461.63;;;8.93;80.28
77799;BME280;66989;50.426;15.352;2024-02-21T10:39:32;98456.19;;;9.22;78.55
77799;BME280;66989;50.426;15.352;2024-02-21T10:41:59;98455.31;;;9.61;77.57
77799;BME280;66989;50.426;15.352;2024-02-21T10:44:28;98451.94;;;9.72;74.94
77799;BME280;66989;50.426;15.352;2024-02-21T10:46:55;98448.59;;;10.19;74.02
77799;BME280;66989;50.426;15.352;2024-02-21T10:49:25;98454.13;;;10.53;72.71
77799;BME280;66989;50.426;15.352;2024-02-21T10:51:54;98447.28;;;10.74;70.83
77799;BME280;66989;50.426;15.352;2024-02-21T10:57:10;98415.44;;;12.90;64.49
77799;BME280;66989;50.426;15.352;2024-02-21T10:59:37;98418.03;;;14.16;59.04
77799;BME280;66989;50.426;15.352;2024-02-21T11:02:04;98415.94;;;14.19;59.18
77799;BME280;66989;50.426;15.352;2024-02-21T11:04:30;98423.03;;;15.08;56.62
77799;BME280;66989;50.426;15.352;2024-02-21T11:06:57;98421.38;;;15.16;54.31
77799;BME280;66989;50.426;15.352;2024-02-21T11:09:30;98418.50;;;14.31;57.25
77799;BME280;66989;50.426;15.352;2024-02-21T11:12:01;98414.03;;;13.70;58.52
77799;BME280;66989;50.426;15.352;2024-02-21T11:14:27;98417.13;;;12.59;62.26
77799;BME280;66989;50.426;15.352;2024-02-21T11:16:53;98418.88;;;11.82;64.37
77799;BME280;66989;50.426;15.352;2024-02-21T11:19:28;98417.41;;;11.44;66.51
77799;BME280;66989;50.426;15.352;2024-02-21T11:21:57;98422.22;;;11.04;68.64
77799;BME280;66989;50.426;15.352;2024-02-21T11:24:28;98414.34;;;10.80;69.36
77799;BME280;66989;50.426;15.352;2024-02-21T11:27:07;98415.47;;;10.65;69.78
77799;BME280;66989;50.426;15.352;2024-02-21T11:29:33;98415.88;;;10.34;70.79
77799;BME280;66989;50.426;15.352;2024-02-21T11:32:01;98410.22;;;10.15;71.95
77799;BME280;66989;50.426;15.352;2024-02-21T11:34:27;98399.75;;;9.90;73.12
77799;BME280;66989;50.426;15.352;2024-02-21T11:36:53;98398.63;;;9.68;73.60
77799;BME280;66989;50.426;15.352;2024-02-21T11:39:25;98396.53;;;9.48;74.83
77799;BME280;66989;50.426;15.352;2024-02-21T11:42:05;98406.00;;;9.38;75.40
77799;BME280;66989;50.426;15.352;2024-02-21T11:44:31;98403.81;;;9.19;76.15
77799;BME280;66989;50.426;15.352;2024-02-21T11:46:57;98395.59;;;9.11;77.07
77799;BME280;66989;50.426;15.352;2024-02-21T11:49:25;98389.69;;;9.07;76.42
77799;BME280;66989;50.426;15.352;2024-02-21T11:52:00;98388.31;;;9.01;77.12
77799;BME280;66989;50.426;15.352;2024-02-21T11:54:27;98388.59;;;8.97;77.41
77799;BME280;66989;50.426;15.352;2024-02-21T11:56:53;98380.84;;;8.95;78.04
77799;BME280;66989;50.426;15.352;2024-02-21T11:59:18;98375.38;;;8.98;77.76
77799;BME280;66989;50.426;15.352;2024-02-21T12:01:44;98374.53;;;8.98;78.75
77799;BME280;66989;50.426;15.352;2024-02-21T12:04:10;98363.19;;;9.10;78.45
77799;BME280;66989;50.426;15.352;2024-02-21T12:06:35;98352.44;;;9.26;77.53
77799;BME280;66989;50.426;15.352;2024-02-21T12:09:01;98349.75;;;10.14;75.00
77799;BME280;66989;50.426;15.352;2024-02-21T12:11:26;98345.94;;;11.01;71.49
77799;BME280;66989;50.426;15.352;2024-02-21T12:14:04;98333.16;;;11.63;69.72
77799;BME280;66989;50.426;15.352;2024-02-21T12:16:30;98328.56;;;12.95;65.01
77799;BME280;66989;50.426;15.352;2024-02-21T12:19:00;98324.69;;;13.00;63.49
77799;BME280;66989;50.426;15.352;2024-02-21T12:21:26;98331.31;;;12.52;64.15
77799;BME280;66989;50.426;15.352;2024-02-21T12:23:54;98329.97;;;12.14;64.76
77799;BME280;66989;50.426;15.352;2024-02-21T12:26:20;98325.44;;;11.94;65.31
77799;BME280;66989;50.426;15.352;2024-02-21T12:28:45;98315.53;;;11.53;67.15
77799;BME280;66989;50.426;15.352;2024-02-21T12:31:11;98315.16;;;11.35;68.46
77799;BME280;66989;50.426;15.352;2024-02-21T12:33:37;98310.59;;;11.26;68.80
77799;BME280;66989;50.426;15.352;2024-02-21T12:36:02;98306.94;;;10.93;70.02
77799;BME280;66989;50.426;15.352;2024-02-21T12:38:29;98293.72;;;10.71;70.95
77799;BME280;66989;50.426;15.352;2024-02-21T12:40:55;98293.00;;;10.69;71.44
77799;BME280;66989;50.426;15.352;2024-02-21T12:43:22;98286.50;;;10.73;72.12
77799;BME280;66989;50.426;15.352;2024-02-21T12:45:48;98288.47;;;10.93;71.53
77799;BME280;66989;50.426;15.352;2024-02-21T12:48:13;98287.91;;;11.57;69.54
77799;BME280;66989;50.426;15.352;2024-02-21T12:50:41;98272.69;;;12.04;68.38
77799;BME280;66989;50.426;15.352;2024-02-21T12:53:13;98267.38;;;12.68;66.61
77799;BME280;66989;50.426;15.352;2024-02-21T12:55:38;98264.94;;;13.58;64.23
77799;BME280;66989;50.426;15.352;2024-02-21T12:58:04;98265.69;;;13.80;62.88